Overview Statistics Trail Chart Weather Telemetry Raw packets
 

This is the latest recevied weather packets stored in our database for station/object DOUGLAS. If no packets are shown the sender has not sent any weather packets the latest 10 day(s).

<< 1 2 3 4 5 6 >>
Time Temp. Humidity Pressure Rain* Wind** Luminosity Snow
1788652202 15.56° C 84% 0 hPa - - - -
1788651603 16.11° C 81% 0 hPa - - - -
1788651040 15.56° C 81% 0 hPa - - - -
1788650403 15.56° C 82% 0 hPa - - - -
1788649803 15.56° C 80% 0 hPa - - - -
1788649204 16.11° C 80% 0 hPa - - - -
1788648602 15.56° C 82% 0 hPa - - - -
1788648008 15.56° C 83% 0 hPa - - - -
1788647405 16.11° C 84% 0 hPa - - - -
1788646804 16.11° C 82% 0 hPa - - - -
1788646203 16.67° C 77% 0 hPa - - - -
1788645604 16.11° C 79% 0 hPa - - - -
1788645003 17.22° C 60% 0 hPa - - - -
1788643802 16.67° C 67% 0 hPa - - - -
1788642603 16.67° C 66% 0 hPa - - - -
1788642003 16.67° C 66% 0 hPa - - - -
1788641403 16.67° C 69% 0 hPa - - - -
1788640803 16.11° C 69% 0 hPa - - - -
1788640202 16.67° C 73% 0 hPa - - - -
1788639602 16.11° C 75% 0 hPa - - - -
1788639008 16.67° C 69% 0 hPa - - - -
1788638403 15.56° C 71% 0 hPa - - - -
1788637808 16.11° C 75% 0 hPa - - - -
1788637203 15.56° C 74% 0 hPa - - - -
1788636603 15.56° C 76% 0 hPa - - - -

* Rain since midnight (hover to see other rain measurements)
** Current wind speed in m/s (hover to see current wind gust speed)